createdAt,value
2023-02-01T00:00:47.425Z,2.38
2023-02-01T00:05:57.745Z,2.20
2023-02-01T00:11:02.465Z,2.80
2023-02-01T00:16:06.526Z,2.63
2023-02-01T00:21:09.099Z,1.80
2023-02-01T00:26:17.164Z,2.13
2023-02-01T00:31:19.743Z,2.40
2023-02-01T00:36:22.711Z,2.47
2023-02-01T00:41:27.215Z,1.73
2023-02-01T00:46:30.211Z,1.70
2023-02-01T00:51:32.721Z,1.55
2023-02-01T00:56:36.523Z,1.80
2023-02-01T01:01:39.050Z,1.47
2023-02-01T01:06:41.589Z,1.30
2023-02-01T01:11:45.824Z,1.85
2023-02-01T01:16:48.322Z,1.40
2023-02-01T01:21:50.808Z,1.53
2023-02-01T01:26:54.641Z,1.50
2023-02-01T01:31:57.193Z,2.15
2023-02-01T01:37:00.125Z,1.20
2023-02-01T01:42:04.213Z,1.30
2023-02-01T01:47:06.828Z,1.00
2023-02-01T01:52:09.842Z,1.10
2023-02-01T01:57:18.612Z,1.20
2023-02-01T02:02:21.317Z,1.60
2023-02-01T02:07:27.923Z,1.50
2023-02-01T02:12:31.743Z,1.83
2023-02-01T02:17:39.446Z,1.70
2023-02-01T02:23:07.513Z,1.30
2023-02-01T02:28:32.988Z,1.70
2023-02-01T02:33:54.999Z,2.25
2023-02-01T02:39:07.088Z,1.63
2023-02-01T02:44:33.335Z,1.93
2023-02-01T02:49:41.393Z,2.50
2023-02-01T02:54:48.289Z,1.80
2023-02-01T03:00:08.529Z,1.50
2023-02-01T03:05:12.360Z,1.40
2023-02-01T03:10:25.152Z,0.90
2023-02-01T03:15:37.210Z,0.90
2023-02-01T03:20:46.476Z,0.90
2023-02-01T03:25:50.950Z,1.10
2023-02-01T03:30:53.914Z,1.05
2023-02-01T03:36:03.638Z,1.17
2023-02-01T03:41:13.991Z,1.88
2023-02-01T03:46:23.883Z,1.38
2023-02-01T03:51:28.148Z,2.37
2023-02-01T03:56:32.869Z,2.53
2023-02-01T04:01:35.376Z,2.50
2023-02-01T04:06:39.183Z,2.50
2023-02-01T04:11:41.677Z,3.10
2023-02-01T04:16:44.306Z,2.72
2023-02-01T04:21:48.105Z,2.70
2023-02-01T04:26:50.648Z,2.80
2023-02-01T04:31:53.251Z,2.97
2023-02-01T04:36:57.103Z,2.63
2023-02-01T04:41:59.585Z,2.33
2023-02-01T04:47:02.083Z,2.13
2023-02-01T04:52:06.226Z,2.92
2023-02-01T04:57:08.836Z,2.95
2023-02-01T05:02:11.463Z,3.30
2023-02-01T05:07:15.277Z,2.70
2023-02-01T05:12:35.715Z,2.67
2023-02-01T05:17:38.181Z,3.23
2023-02-01T05:22:43.369Z,3.30
2023-02-01T05:27:45.850Z,3.13
2023-02-01T05:32:51.580Z,3.27
2023-02-01T05:37:55.376Z,2.63
2023-02-01T05:42:57.851Z,2.28
2023-02-01T05:48:00.318Z,1.98
2023-02-01T05:53:04.147Z,1.50
2023-02-01T05:58:07.125Z,1.40
2023-02-01T06:03:09.694Z,1.70
2023-02-01T06:08:13.522Z,1.27
2023-02-01T06:13:16.041Z,1.00
2023-02-01T06:18:19.015Z,1.42
2023-02-01T06:23:24.608Z,0.87
2023-02-01T06:28:27.464Z,1.07
2023-02-01T06:33:30.137Z,0.75
2023-02-01T06:38:35.966Z,0.70
2023-02-01T06:43:38.873Z,0.83
2023-02-01T06:48:41.472Z,0.80
2023-02-01T06:53:45.281Z,0.98
2023-02-01T06:58:47.950Z,0.77
2023-02-01T07:03:51.868Z,0.70
2023-02-01T07:08:56.721Z,0.70
2023-02-01T07:13:59.228Z,0.90
2023-02-01T07:19:02.415Z,1.00
2023-02-01T07:24:07.028Z,0.93
2023-02-01T07:29:09.525Z,1.00
2023-02-01T07:34:12.005Z,0.70
2023-02-01T07:39:15.887Z,0.70
2023-02-01T07:44:23.469Z,0.82
2023-02-01T07:49:25.960Z,1.03
2023-02-01T07:54:29.788Z,0.90
2023-02-01T07:59:32.284Z,0.70
2023-02-01T08:04:34.816Z,0.83
2023-02-01T08:09:38.628Z,0.73
2023-02-01T08:14:41.819Z,0.90
2023-02-01T08:19:44.323Z,0.80
2023-02-01T08:24:49.775Z,0.70
2023-02-01T08:29:52.386Z,1.10
2023-02-01T08:34:55.312Z,1.10
2023-02-01T08:39:59.126Z,1.80
2023-02-01T08:45:01.641Z,1.52
2023-02-01T08:50:04.484Z,1.50
2023-02-01T08:55:09.884Z,1.93
2023-02-01T09:00:16.166Z,1.50
2023-02-01T09:05:23.006Z,1.90
2023-02-01T09:10:35.173Z,1.60
2023-02-01T09:15:39.417Z,1.87
2023-02-01T09:20:41.974Z,1.20
2023-02-01T09:25:45.810Z,1.33
2023-02-01T09:30:48.540Z,1.67
2023-02-01T09:35:51.218Z,1.85
2023-02-01T09:40:55.771Z,2.15
2023-02-01T09:46:06.062Z,2.03
2023-02-01T09:51:15.392Z,2.77
2023-02-01T09:56:24.761Z,1.83
2023-02-01T10:01:30.219Z,1.48
2023-02-01T10:06:42.739Z,1.97
2023-02-01T10:12:02.678Z,1.67
2023-02-01T10:17:15.345Z,2.00
2023-02-01T10:22:52.173Z,1.90
2023-02-01T10:27:55.781Z,1.33
2023-02-01T10:33:02.658Z,1.67
2023-02-01T10:38:14.206Z,1.60
2023-02-01T10:43:18.020Z,2.17
2023-02-01T10:48:20.529Z,1.70
2023-02-01T10:53:27.790Z,2.20
2023-02-01T10:58:34.221Z,1.70
2023-02-01T11:03:41.375Z,2.03
2023-02-01T11:08:46.682Z,1.60
2023-02-01T11:13:57.442Z,1.70
2023-02-01T11:19:00.591Z,1.70
2023-02-01T11:24:05.053Z,1.70
2023-02-01T11:29:14.724Z,1.80
2023-02-01T11:34:23.509Z,2.07
2023-02-01T11:39:28.096Z,2.17
2023-02-01T11:44:36.290Z,2.00
2023-02-01T11:49:39.219Z,2.10
2023-02-01T11:54:59.109Z,2.42
2023-02-01T12:00:20.585Z,1.70
2023-02-01T12:05:48.813Z,1.53
2023-02-01T12:11:08.439Z,1.45
2023-02-01T12:16:25.150Z,1.58
2023-02-01T12:21:48.439Z,2.40
2023-02-01T12:27:02.998Z,1.70
2023-02-01T12:32:16.132Z,0.90
2023-02-01T12:37:29.427Z,1.58
2023-02-01T12:42:38.436Z,1.43
2023-02-01T12:47:47.136Z,2.15
2023-02-01T12:52:52.176Z,1.77
2023-02-01T12:58:01.497Z,1.97
2023-02-01T13:03:16.609Z,1.83
2023-02-01T13:08:26.389Z,1.52
2023-02-01T13:13:50.418Z,1.00
2023-02-01T13:19:12.501Z,1.10
2023-02-01T13:24:32.682Z,0.88
2023-02-01T13:29:36.661Z,1.10
2023-02-01T13:35:01.460Z,1.40
2023-02-01T13:40:32.025Z,1.20
2023-02-01T13:45:45.534Z,1.17
2023-02-01T13:50:54.219Z,1.10
2023-02-01T13:56:01.253Z,1.27
2023-02-01T14:01:47.511Z,1.30
2023-02-01T14:06:58.177Z,0.80
2023-02-01T14:12:43.583Z,0.70
2023-02-01T14:17:46.420Z,0.82
2023-02-01T14:22:51.399Z,0.80
2023-02-01T14:28:12.588Z,1.40
2023-02-01T14:33:23.699Z,0.80
2023-02-01T14:38:28.671Z,0.63
2023-02-01T14:43:54.826Z,0.70
2023-02-01T14:48:58.552Z,1.20
2023-02-01T14:54:14.631Z,1.85
2023-02-01T14:59:23.489Z,0.70
2023-02-01T15:04:28.562Z,0.50
2023-02-01T15:09:36.587Z,0.50
2023-02-01T15:14:43.788Z,0.70
2023-02-01T15:19:55.971Z,0.60
2023-02-01T15:25:02.349Z,0.65
2023-02-01T15:30:09.630Z,0.75
2023-02-01T15:35:34.193Z,0.90
2023-02-01T15:40:38.743Z,0.77
2023-02-01T15:45:41.908Z,0.70
2023-02-01T15:50:47.373Z,0.70
2023-02-01T15:55:56.496Z,0.50
2023-02-01T16:01:02.712Z,0.60
2023-02-01T16:06:10.161Z,0.70
2023-02-01T16:11:44.132Z,0.60
2023-02-01T16:16:48.293Z,0.80
2023-02-01T16:21:51.388Z,0.90
2023-02-01T16:26:55.854Z,1.00
2023-02-01T16:31:59.020Z,1.00
2023-02-01T16:37:02.555Z,1.00
2023-02-01T16:42:13.253Z,1.63
2023-02-01T16:47:21.655Z,1.50
2023-02-01T16:52:27.862Z,1.60
2023-02-01T16:57:34.229Z,1.75
2023-02-01T17:02:38.165Z,1.53
2023-02-01T17:07:42.752Z,1.55
2023-02-01T17:12:47.520Z,1.50
2023-02-01T17:17:55.655Z,1.57
2023-02-01T17:22:58.763Z,1.65
2023-02-01T17:28:03.301Z,2.17
2023-02-01T17:33:20.632Z,2.83
2023-02-01T17:38:25.565Z,2.23
2023-02-01T17:43:29.970Z,2.38
2023-02-01T17:48:33.449Z,2.60
2023-02-01T17:53:38.827Z,2.37
2023-02-01T17:58:45.720Z,2.75
2023-02-01T18:03:53.984Z,2.10
2023-02-01T18:08:57.350Z,2.10
2023-02-01T18:14:05.348Z,2.28
2023-02-01T18:19:08.639Z,2.33
2023-02-01T18:24:26.619Z,2.80
2023-02-01T18:29:33.483Z,2.17
2023-02-01T18:34:37.675Z,3.03
2023-02-01T18:39:41.183Z,2.50
2023-02-01T18:44:45.866Z,2.63
2023-02-01T18:50:06.579Z,2.33
2023-02-01T18:55:10.446Z,2.50
2023-02-01T19:00:16.521Z,2.20
2023-02-01T19:05:26.582Z,2.20
2023-02-01T19:10:33.856Z,2.30
2023-02-01T19:15:40.797Z,3.23
2023-02-01T19:20:50.631Z,2.73
2023-02-01T19:26:04.765Z,2.63
2023-02-01T19:31:17.389Z,2.58
2023-02-01T19:36:37.028Z,2.70
2023-02-01T19:41:44.672Z,2.63
2023-02-01T19:46:54.630Z,2.50
2023-02-01T19:51:57.941Z,3.23
2023-02-01T19:57:17.359Z,2.53
2023-02-01T20:02:27.410Z,3.60
2023-02-01T20:07:31.595Z,2.67
2023-02-01T20:12:46.725Z,3.27
2023-02-01T20:17:51.769Z,3.45
2023-02-01T20:22:55.538Z,2.08
2023-02-01T20:28:01.314Z,2.20
2023-02-01T20:33:09.978Z,2.20
2023-02-01T20:38:15.257Z,2.20
2023-02-01T20:43:19.333Z,2.27
2023-02-01T20:48:34.116Z,1.85
2023-02-01T20:53:37.124Z,2.17
2023-02-01T20:58:40.736Z,1.90
2023-02-01T21:03:50.445Z,1.90
2023-02-01T21:08:54.236Z,2.78
2023-02-01T21:13:59.319Z,1.60
2023-02-01T21:19:06.018Z,1.13
2023-02-01T21:24:10.352Z,1.70
2023-02-01T21:29:22.919Z,1.83
2023-02-01T21:34:30.851Z,1.73
2023-02-01T21:39:41.318Z,1.45
2023-02-01T21:44:46.256Z,1.95
2023-02-01T21:49:50.986Z,2.10
2023-02-01T21:54:59.822Z,1.43
2023-02-01T22:00:04.223Z,1.60
2023-02-01T22:05:11.828Z,1.83
2023-02-01T22:10:15.061Z,1.60
2023-02-01T22:15:18.771Z,1.80
2023-02-01T22:20:24.711Z,2.88
2023-02-01T22:25:28.745Z,2.63
2023-02-01T22:30:31.901Z,2.28
2023-02-01T22:35:40.904Z,2.20
2023-02-01T22:40:44.117Z,2.10
2023-02-01T22:45:47.548Z,2.20
2023-02-01T22:50:53.039Z,2.70
2023-02-01T22:56:01.566Z,2.30
2023-02-01T23:01:09.227Z,1.43
2023-02-01T23:06:18.624Z,3.40
2023-02-01T23:11:21.374Z,1.90
2023-02-01T23:16:24.790Z,1.83
2023-02-01T23:21:29.293Z,2.13
2023-02-01T23:26:33.249Z,2.10
2023-02-01T23:31:36.760Z,1.70
2023-02-01T23:36:41.457Z,2.00
2023-02-01T23:41:45.960Z,2.35
2023-02-01T23:46:49.123Z,2.72
2023-02-01T23:51:53.936Z,2.20
2023-02-01T23:56:58.308Z,1.55
